Time;durP1;ratioP1;P1;durP2;ratioP2;P2;SDS_P1;SDS_P2;PMS_P1;PMS_P2;Temp;Humidity;BMP_temperature;BMP_pressure;BME280_temperature;BME280_humidity;BME280_pressure;Samples;Min_cycle;Max_cycle;Signal;HPM_P1;HPM_P2
2021/03/06 07:07:50;;;;;;;13.90;6.93;;;;;;;;;;5053802;28;20063;-91
2021/03/06 07:35:41;;;;;;;9.55;6.82;;;;;;;;;;4881625;29;20029;-85
2021/03/06 07:59:06;;;;;;;11.13;6.35;;;;;;;;;;4926210;28;20081;-94
2021/03/06 08:01:57;;;;;;;10.50;5.10;;;;;;;;;;4955916;28;20039;-92
2021/03/06 08:11:58;;;;;;;9.98;4.95;;;;;;;;;;5019933;28;20063;-89
2021/03/06 08:14:46;;;;;;;9.93;5.05;;;;;;;;;;5034654;28;20029;-90
2021/03/06 08:17:38;;;;;;;10.70;5.03;;;;;;;;;;5030830;28;20128;-93
2021/03/06 08:24:37;;;;;;;;;;;;;;;;;;;;;
2021/03/06 08:47:31;;;;;;;;;;;;;;;;;;;;;
2021/03/06 08:51:10;;;;;;;;;;;;;;;;;;;;;
2021/03/06 09:01:40;;;;;;;;;;;;;;;;;;;;;
2021/03/06 09:08:26;;;;;;;;;;;;;;;;;;;;;
2021/03/06 09:11:11;;;;;;;14.70;4.43;;;;;;;;;;4879337;29;20037;-89
2021/03/06 09:13:59;;;;;;;8.43;4.85;;;;;;;;;;4931635;28;20031;-88
2021/03/06 09:17:21;;;;;;;9.05;6.30;;;;;;;;;;4971676;28;20030;-92
2021/03/06 09:20:06;;;;;;;5.65;3.97;;;;;;;;;;5053991;28;20063;-88
2021/03/06 09:22:54;;;;;;;6.93;4.78;;;;;;;;;;5051559;28;20149;-92
2021/03/06 09:32:43;;;;;;;;;;;;;;;;;;;;;
2021/03/06 09:39:02;;;;;;;7.97;4.03;;;;;;;;;;4998304;28;20095;-87
2021/03/06 09:41:48;;;;;;;6.78;4.65;;;;;;;;;;5045862;28;20054;-87
2021/03/06 09:44:33;;;;;;;6.57;4.20;;;;;;;;;;5046311;28;20040;-87
2021/03/06 09:47:22;;;;;;;6.78;3.88;;;;;;;;;;5042254;28;20493;-86
2021/03/06 09:50:10;;;;;;;6.60;4.10;;;;;;;;;;5047038;28;20102;-88
2021/03/06 09:52:55;;;;;;;5.43;3.63;;;;;;;;;;5045271;28;20118;-83
2021/03/06 09:55:41;;;;;;;6.95;4.30;;;;;;;;;;5032633;28;20017;-90
2021/03/06 09:58:27;;;;;;;10.60;9.65;;;;;;;;;;5046401;28;20052;-89
2021/03/06 10:01:17;;;;;;;157.32;149.73;;;;;;;;;;5035778;28;20025;-89
2021/03/06 10:04:09;;;;;;;321.13;303.05;;;;;;;;;;5035969;28;20399;-88
2021/03/06 10:06:57;;;;;;;393.00;366.17;;;;;;;;;;5041049;28;20013;-88
2021/03/06 10:09:43;;;;;;;360.20;337.67;;;;;;;;;;5034881;28;20052;-89
2021/03/06 10:12:28;;;;;;;139.18;132.93;;;;;;;;;;5028716;28;20025;-83
2021/03/06 10:15:15;;;;;;;1999.90;999.90;;;;;;;;;;5045353;28;20032;-91
2021/03/06 10:18:07;;;;;;;1999.90;999.90;;;;;;;;;;5044173;28;20545;-90
2021/03/06 10:20:52;;;;;;;1999.90;999.90;;;;;;;;;;5041956;28;20040;-89
2021/03/06 10:23:37;;;;;;;1999.90;999.90;;;;;;;;;;5049600;28;20090;-90
2021/03/06 10:26:27;;;;;;;1999.90;999.90;;;;;;;;;;5047209;28;20036;-89
2021/03/06 10:29:22;;;;;;;1999.90;999.90;;;;;;;;;;5045553;28;20017;-90
2021/03/06 10:32:08;;;;;;;1999.90;999.90;;;;;;;;;;5046528;28;20021;-92
2021/03/06 10:34:58;;;;;;;1999.90;999.90;;;;;;;;;;5045379;28;20388;-92
2021/03/06 10:37:53;;;;;;;1999.90;999.90;;;;;;;;;;5059178;28;20082;-92
2021/03/06 10:40:45;;;;;;;1999.90;999.90;;;;;;;;;;5043854;28;20064;-90
2021/03/06 10:43:31;;;;;;;1999.90;999.90;;;;;;;;;;5040767;28;20017;-93
2021/03/06 10:46:17;;;;;;;1999.90;999.90;;;;;;;;;;5042582;28;20025;-89
2021/03/06 10:49:07;;;;;;;1999.90;999.90;;;;;;;;;;5041331;28;20072;-87
2021/03/06 10:51:53;;;;;;;1999.90;999.90;;;;;;;;;;5039367;28;20036;-90
2021/03/06 10:54:49;;;;;;;1999.90;999.90;;;;;;;;;;5044235;28;20025;-90
2021/03/06 10:57:34;;;;;;;1999.90;999.90;;;;;;;;;;5041764;28;20041;-89
2021/03/06 11:00:21;;;;;;;1999.90;999.90;;;;;;;;;;5054782;28;20032;-88
2021/03/06 11:03:08;;;;;;;220.40;208.50;;;;;;;;;;5051776;28;20104;-88
2021/03/06 11:05:57;;;;;;;8.13;4.80;;;;;;;;;;5054301;28;20227;-86
2021/03/06 11:08:46;;;;;;;4.53;3.70;;;;;;;;;;5063461;28;20159;-88
2021/03/06 11:11:31;;;;;;;6.38;4.35;;;;;;;;;;5049396;28;20034;-90
2021/03/06 11:14:24;;;;;;;7.15;4.45;;;;;;;;;;5038760;28;20020;-88
2021/03/06 11:17:16;;;;;;;7.18;4.30;;;;;;;;;;5050187;28;20643;-84
2021/03/06 11:20:01;;;;;;;7.68;4.57;;;;;;;;;;5058477;28;20020;-87
2021/03/06 11:22:47;;;;;;;8.07;5.13;;;;;;;;;;5048889;28;20025;-95
2021/03/06 11:29:00;;;;;;;5.95;4.35;;;;;;;;;;5062564;28;20044;-94
2021/03/06 11:32:23;;;;;;;;;;;;;;;;;;;;;
2021/03/06 11:39:07;;;;;;;6.07;4.20;;;;;;;;;;4984812;28;20062;-94
2021/03/06 11:41:58;;;;;;;8.35;4.53;;;;;;;;;;4928854;29;20523;-92
2021/03/06 11:44:51;;;;;;;6.93;4.70;;;;;;;;;;4990148;28;20127;-92
2021/03/06 11:47:37;;;;;;;6.38;4.03;;;;;;;;;;5036616;28;20048;-90
2021/03/06 12:00:42;;;;;;;8.57;5.25;;;;;;;;;;6001774;23;20057;-86
2021/03/06 12:03:28;;;;;;;6.65;3.97;;;;;;;;;;4996699;28;20464;-85
2021/03/06 12:06:14;;;;;;;6.32;4.13;;;;;;;;;;5013181;28;20033;-86
2021/03/06 12:08:59;;;;;;;5.78;4.22;;;;;;;;;;5011393;28;20022;-86
2021/03/06 12:11:44;;;;;;;8.43;4.45;;;;;;;;;;5028394;28;20157;-87
2021/03/06 12:14:29;;;;;;;8.57;3.92;;;;;;;;;;5016992;28;20064;-82
2021/03/06 12:17:15;;;;;;;6.53;3.65;;;;;;;;;;5007751;28;20052;-87
2021/03/06 12:23:40;;;;;;;7.80;4.03;;;;;;;;;;5012835;28;20029;-84
2021/03/06 12:26:25;;;;;;;6.30;3.75;;;;;;;;;;5005202;28;20030;-84
2021/03/06 12:29:11;;;;;;;5.88;4.38;;;;;;;;;;5008590;28;20120;-85
2021/03/06 12:32:02;;;;;;;6.70;4.30;;;;;;;;;;5002904;28;20129;-83
2021/03/06 12:34:47;;;;;;;4.60;3.20;;;;;;;;;;5008998;28;20321;-84
2021/03/06 12:37:33;;;;;;;5.60;3.65;;;;;;;;;;5022771;28;20064;-87
2021/03/06 12:40:28;;;;;;;7.72;3.47;;;;;;;;;;5004830;28;20425;-85
2021/03/06 12:43:19;;;;;;;7.80;3.88;;;;;;;;;;5014120;28;20030;-85
2021/03/06 12:46:05;;;;;;;5.47;3.38;;;;;;;;;;5019006;28;20029;-85
2021/03/06 12:48:53;;;;;;;7.00;4.15;;;;;;;;;;5008089;28;20065;-85
2021/03/06 12:51:38;;;;;;;7.20;4.20;;;;;;;;;;4990196;28;20026;-84
2021/03/06 12:54:26;;;;;;;5.93;3.15;;;;;;;;;;4989744;28;20493;-85
2021/03/06 12:57:15;;;;;;;5.85;3.58;;;;;;;;;;5006475;28;20022;-87
2021/03/06 13:00:01;;;;;;;5.53;3.00;;;;;;;;;;5010985;28;20018;-87
2021/03/06 13:02:46;;;;;;;7.47;3.17;;;;;;;;;;5005216;28;20527;-88
2021/03/06 13:05:31;;;;;;;3.92;3.03;;;;;;;;;;5021810;28;20117;-86
2021/03/06 13:08:17;;;;;;;4.18;3.17;;;;;;;;;;4998484;28;20037;-86
2021/03/06 13:11:02;;;;;;;6.95;3.40;;;;;;;;;;5003980;28;20022;-85
2021/03/06 13:13:48;;;;;;;4.93;2.83;;;;;;;;;;4992039;28;20080;-86
2021/03/06 13:16:33;;;;;;;5.70;3.10;;;;;;;;;;5005789;28;20038;-86
2021/03/06 13:19:18;;;;;;;4.70;3.05;;;;;;;;;;4999029;28;20017;-86
2021/03/06 13:22:04;;;;;;;4.28;2.72;;;;;;;;;;4998791;28;20423;-87
2021/03/06 13:24:49;;;;;;;5.32;2.30;;;;;;;;;;5004434;28;20022;-87
2021/03/06 13:27:35;;;;;;;5.78;3.15;;;;;;;;;;5001554;28;20103;-87
2021/03/06 13:30:22;;;;;;;4.75;2.95;;;;;;;;;;4998396;28;20034;-87
2021/03/06 13:33:07;;;;;;;5.57;3.00;;;;;;;;;;4996323;28;20500;-88
2021/03/06 13:35:52;;;;;;;5.45;3.35;;;;;;;;;;4999538;28;20029;-87
2021/03/06 13:38:38;;;;;;;5.93;3.00;;;;;;;;;;5016886;28;20104;-86
2021/03/06 13:41:23;;;;;;;7.25;3.13;;;;;;;;;;5018306;28;20515;-87
2021/03/06 13:44:08;;;;;;;5.40;2.92;;;;;;;;;;5001068;28;20026;-85
2021/03/06 13:46:54;;;;;;;6.00;2.78;;;;;;;;;;5021307;28;20036;-85
2021/03/06 13:49:39;;;;;;;5.20;2.97;;;;;;;;;;5009865;28;20030;-87
2021/03/06 13:52:24;;;;;;;5.78;2.72;;;;;;;;;;5020674;28;20037;-87
2021/03/06 13:55:12;;;;;;;3.90;2.47;;;;;;;;;;5017259;28;20029;-87
2021/03/06 13:57:57;;;;;;;4.95;3.03;;;;;;;;;;5032706;28;20022;-88
2021/03/06 14:00:42;;;;;;;5.13;2.60;;;;;;;;;;5030689;28;20048;-87
2021/03/06 14:03:54;;;;;;;4.82;3.00;;;;;;;;;;5000727;28;20509;-87
2021/03/06 14:10:20;;;;;;;3.95;2.42;;;;;;;;;;5006992;28;20033;-86
2021/03/06 14:13:29;;;;;;;4.88;2.80;;;;;;;;;;5008288;28;20034;-86
2021/03/06 14:16:19;;;;;;;4.32;2.70;;;;;;;;;;5002119;28;20030;-87
2021/03/06 14:19:04;;;;;;;6.82;2.67;;;;;;;;;;5002961;28;20080;-85
2021/03/06 14:21:53;;;;;;;3.72;2.55;;;;;;;;;;5013721;28;20059;-86
2021/03/06 14:24:43;;;;;;;5.07;2.90;;;;;;;;;;5016240;28;20037;-86
2021/03/06 14:27:48;;;;;;;5.30;2.85;;;;;;;;;;5016786;28;20066;-88
2021/03/06 14:30:36;;;;;;;6.90;3.33;;;;;;;;;;4996837;28;20036;-88
2021/03/06 14:33:21;;;;;;;7.30;3.10;;;;;;;;;;4998847;28;20038;-88
2021/03/06 14:36:07;;;;;;;6.38;2.85;;;;;;;;;;5000116;28;20018;-87
2021/03/06 14:38:52;;;;;;;3.67;2.40;;;;;;;;;;5016057;28;20113;-87
2021/03/06 14:41:38;;;;;;;6.43;3.13;;;;;;;;;;4997333;28;20088;-87
2021/03/06 14:44:37;;;;;;;5.15;3.05;;;;;;;;;;5003690;28;20763;-87
2021/03/06 14:47:28;;;;;;;5.43;3.00;;;;;;;;;;5015955;28;20034;-88
2021/03/06 14:50:16;;;;;;;3.03;2.03;;;;;;;;;;4991919;28;20030;-86
2021/03/06 14:53:08;;;;;;;3.70;2.42;;;;;;;;;;5003900;28;20113;-88
2021/03/06 14:56:03;;;;;;;5.78;3.70;;;;;;;;;;4997489;28;20030;-88
2021/03/06 14:58:59;;;;;;;6.65;3.00;;;;;;;;;;4998749;28;20033;-87
2021/03/06 15:02:24;;;;;;;;;;;;;;;;;;;;;
2021/03/06 15:05:12;;;;;;;5.55;2.83;;;;;;;;;;4992086;28;20066;-86
2021/03/06 15:08:34;;;;;;;4.70;2.58;;;;;;;;;;5001254;28;20034;-87
2021/03/06 15:11:27;;;;;;;6.32;3.13;;;;;;;;;;5002016;28;20030;-87
2021/03/06 15:14:15;;;;;;;5.57;3.08;;;;;;;;;;5003628;28;20388;-87
2021/03/06 15:20:21;;;;;;;3.63;2.65;;;;;;;;;;5036245;28;20002;-85
2021/03/06 15:23:29;;;;;;;5.03;2.60;;;;;;;;;;5015836;28;20112;-87
2021/03/06 15:27:00;;;;;;;6.50;3.15;;;;;;;;;;5020168;28;20030;-87
2021/03/06 15:29:59;;;;;;;4.25;2.88;;;;;;;;;;5015410;28;20388;-87
2021/03/06 15:32:49;;;;;;;5.88;3.53;;;;;;;;;;5020328;28;20040;-87
2021/03/06 15:35:41;;;;;;;5.63;3.03;;;;;;;;;;4986119;28;20144;-85
2021/03/06 15:38:31;;;;;;;5.50;2.90;;;;;;;;;;4983946;28;20040;-89
2021/03/06 15:41:57;;;;;;;3.38;2.75;;;;;;;;;;4999749;28;20021;-88
2021/03/06 15:45:18;;;;;;;4.65;3.13;;;;;;;;;;4933617;28;20506;-88
2021/03/06 15:48:20;;;;;;;5.30;2.88;;;;;;;;;;4949579;28;20164;-87
2021/03/06 15:51:30;;;;;;;;;;;;;;;;;;;;;
2021/03/06 15:54:27;;;;;;;3.80;2.75;;;;;;;;;;4960304;28;20030;-86
2021/03/06 15:57:15;;;;;;;4.82;2.85;;;;;;;;;;4941332;28;20030;-86
2021/03/06 16:00:04;;;;;;;5.22;3.38;;;;;;;;;;5002516;28;20374;-88
2021/03/06 16:02:52;;;;;;;5.55;3.17;;;;;;;;;;5006901;28;20045;-87
2021/03/06 16:05:38;;;;;;;7.97;3.83;;;;;;;;;;5014912;28;20516;-86
2021/03/06 16:08:31;;;;;;;4.50;3.28;;;;;;;;;;5001098;28;20516;-87
2021/03/06 16:11:50;;;;;;;6.00;3.08;;;;;;;;;;5023744;28;20028;-87
2021/03/06 16:15:13;;;;;;;5.20;3.58;;;;;;;;;;4962140;28;20038;-87
2021/03/06 16:18:01;;;;;;;3.40;2.42;;;;;;;;;;4948721;28;20886;-87
2021/03/06 16:20:57;;;;;;;4.78;2.67;;;;;;;;;;4960841;28;20042;-87
2021/03/06 16:23:48;;;;;;;7.72;3.25;;;;;;;;;;4984619;28;20476;-88
2021/03/06 16:26:34;;;;;;;10.77;3.35;;;;;;;;;;5017553;28;20109;-87
2021/03/06 16:29:23;;;;;;;5.85;3.10;;;;;;;;;;5018045;28;20060;-87
2021/03/06 16:32:23;;;;;;;6.10;3.83;;;;;;;;;;4963167;28;20059;-87
2021/03/06 16:38:24;;;;;;;6.80;4.22;;;;;;;;;;5002196;28;20033;-87
2021/03/06 16:41:11;;;;;;;5.90;3.08;;;;;;;;;;4999317;28;20104;-87
2021/03/06 16:43:57;;;;;;;7.45;3.40;;;;;;;;;;5001988;28;20347;-85
2021/03/06 16:46:49;;;;;;;8.38;4.30;;;;;;;;;;5003878;28;20042;-85
2021/03/06 16:49:45;;;;;;;8.48;3.42;;;;;;;;;;5002698;28;20109;-86
2021/03/06 16:52:41;;;;;;;5.75;3.35;;;;;;;;;;5009738;28;20151;-89
2021/03/06 16:55:26;;;;;;;5.78;3.10;;;;;;;;;;4992650;28;20022;-86
2021/03/06 16:58:41;;;;;;;7.97;3.15;;;;;;;;;;4994688;28;20677;-86
2021/03/06 17:01:38;;;;;;;6.65;3.20;;;;;;;;;;4981036;28;20038;-87
2021/03/06 17:04:24;;;;;;;3.53;2.65;;;;;;;;;;5000697;28;20506;-87
2021/03/06 17:07:12;;;;;;;5.80;3.10;;;;;;;;;;5018063;28;20241;-86
2021/03/06 17:10:19;;;;;;;4.55;2.85;;;;;;;;;;5010925;28;20026;-86
2021/03/06 17:16:17;;;;;;;7.07;3.13;;;;;;;;;;5012369;28;20064;-87
2021/03/06 17:19:06;;;;;;;7.63;3.22;;;;;;;;;;5019059;28;20504;-86
2021/03/06 17:21:58;;;;;;;4.93;2.90;;;;;;;;;;5006894;28;20038;-88
2021/03/06 17:24:43;;;;;;;6.18;3.65;;;;;;;;;;5020496;28;20030;-88
2021/03/06 17:27:31;;;;;;;6.20;3.00;;;;;;;;;;5013858;28;20421;-87
2021/03/06 17:30:17;;;;;;;4.35;2.90;;;;;;;;;;5021930;28;20072;-87
2021/03/06 17:33:02;;;;;;;5.55;3.25;;;;;;;;;;5014970;28;20037;-87
2021/03/06 17:35:47;;;;;;;5.75;3.70;;;;;;;;;;4989683;28;20113;-86
2021/03/06 17:38:33;;;;;;;7.95;3.53;;;;;;;;;;5004711;28;20018;-87
2021/03/06 17:41:18;;;;;;;10.70;4.05;;;;;;;;;;5004398;28;20092;-87
2021/03/06 17:44:04;;;;;;;9.25;3.97;;;;;;;;;;5013075;28;20065;-87
2021/03/06 17:46:49;;;;;;;7.72;4.05;;;;;;;;;;5002986;28;20022;-88
2021/03/06 17:49:37;;;;;;;18.98;12.05;;;;;;;;;;5015836;28;20141;-87
2021/03/06 17:52:22;;;;;;;28.55;21.02;;;;;;;;;;5008810;28;20088;-88
2021/03/06 17:55:12;;;;;;;88.82;62.72;;;;;;;;;;5007767;28;20480;-89
2021/03/06 17:57:57;;;;;;;51.35;45.15;;;;;;;;;;5003608;28;20105;-90
2021/03/06 18:00:55;;;;;;;145.95;91.50;;;;;;;;;;5018845;28;20033;-90
2021/03/06 18:03:43;;;;;;;395.02;290.63;;;;;;;;;;5005460;28;20049;-89
2021/03/06 18:06:28;;;;;;;112.22;61.33;;;;;;;;;;5025124;28;20121;-89
2021/03/06 18:09:17;;;;;;;17.20;9.35;;;;;;;;;;5012018;28;20068;-92
2021/03/06 18:12:02;;;;;;;10.93;5.63;;;;;;;;;;5011700;28;20643;-89
2021/03/06 18:14:48;;;;;;;8.85;4.82;;;;;;;;;;5007897;28;20053;-88
2021/03/06 18:17:33;;;;;;;8.55;4.95;;;;;;;;;;5002888;28;20033;-89
2021/03/06 18:20:19;;;;;;;10.88;5.43;;;;;;;;;;5017805;28;20099;-89
2021/03/06 18:23:05;;;;;;;7.72;4.47;;;;;;;;;;5022408;28;20133;-88
2021/03/06 18:25:51;;;;;;;8.25;4.30;;;;;;;;;;4999294;28;20029;-88
2021/03/06 18:28:36;;;;;;;11.57;4.72;;;;;;;;;;5008075;28;20170;-88
2021/03/06 18:31:22;;;;;;;8.75;4.75;;;;;;;;;;5016305;28;20026;-88
2021/03/06 18:34:12;;;;;;;11.75;5.82;;;;;;;;;;5007277;28;20069;-90
2021/03/06 18:36:57;;;;;;;12.50;5.63;;;;;;;;;;5010370;28;20199;-89
2021/03/06 18:39:43;;;;;;;12.27;5.40;;;;;;;;;;5016526;28;20053;-88
2021/03/06 18:42:28;;;;;;;12.90;6.30;;;;;;;;;;5010425;28;20069;-89
2021/03/06 18:45:15;;;;;;;11.05;4.88;;;;;;;;;;4991371;28;20539;-87
2021/03/06 18:48:02;;;;;;;12.68;4.55;;;;;;;;;;5012042;28;20105;-90
2021/03/06 18:58:31;;;;;;;;;;;;;;;;;;;;;
2021/03/06 19:01:17;;;;;;;7.95;4.40;;;;;;;;;;4909177;29;20120;-91
2021/03/06 19:11:19;;;;;;;;;;;;;;;;;;;;;
2021/03/06 19:14:25;;;;;;;;;;;;;;;;;;;;;
2021/03/06 19:57:01;;;;;;;11.23;5.85;;;;;;;;;;4957988;28;20042;-91
2021/03/06 20:36:00;;;;;;;;;;;;;;;;;;;;;
2021/03/06 20:43:07;;;;;;;;;;;;;;;;;;;;;
2021/03/06 21:08:11;;;;;;;;;;;;;;;;;;;;;
2021/03/06 21:15:50;;;;;;;10.35;6.53;;;;;;;;;;4759185;30;20056;-89
2021/03/06 21:25:25;;;;;;;13.57;6.65;;;;;;;;;;4738585;30;20032;-88
2021/03/06 21:28:34;;;;;;;13.00;7.25;;;;;;;;;;4766590;29;20103;-90
2021/03/06 21:31:19;;;;;;;15.15;6.95;;;;;;;;;;4933059;28;20036;-87
2021/03/06 21:34:07;;;;;;;10.90;6.80;;;;;;;;;;4984003;28;20069;-90
2021/03/06 21:36:59;;;;;;;11.80;6.53;;;;;;;;;;4990285;28;20030;-89
2021/03/06 21:40:07;;;;;;;20.00;7.80;;;;;;;;;;4990521;28;20034;-90
2021/03/06 21:43:28;;;;;;;11.35;7.03;;;;;;;;;;5003060;28;20022;-88
2021/03/06 21:50:01;;;;;;;16.17;8.75;;;;;;;;;;4966468;28;20039;-89
2021/03/06 21:52:49;;;;;;;14.70;8.55;;;;;;;;;;5001690;28;20077;-89
2021/03/06 21:55:43;;;;;;;13.95;8.43;;;;;;;;;;5001981;28;20051;-91
2021/03/06 21:58:38;;;;;;;16.90;8.88;;;;;;;;;;4998416;28;20034;-89
2021/03/06 22:01:52;;;;;;;;;;;;;;;;;;;;;
2021/03/06 22:04:56;;;;;;;17.38;8.93;;;;;;;;;;4986913;28;20065;-90
2021/03/06 22:11:18;;;;;;;15.45;8.75;;;;;;;;;;4998751;28;20031;-89
2021/03/06 22:14:23;;;;;;;15.43;9.40;;;;;;;;;;4996050;28;20118;-89
2021/03/06 22:17:11;;;;;;;14.57;8.50;;;;;;;;;;4978571;28;20026;-88
2021/03/06 22:20:44;;;;;;;19.23;9.30;;;;;;;;;;4986867;28;20034;-89
2021/03/06 22:23:41;;;;;;;14.52;7.93;;;;;;;;;;4971037;28;20026;-89
2021/03/06 22:26:45;;;;;;;;;;;;;;;;;;;;;
2021/03/06 22:30:07;;;;;;;;;;;;;;;;;;;;;
2021/03/06 22:33:00;;;;;;;12.52;7.65;;;;;;;;;;4988548;28;20030;-91
2021/03/06 22:39:01;;;;;;;15.23;7.18;;;;;;;;;;4995785;28;20061;-91
2021/03/06 22:41:47;;;;;;;15.25;8.38;;;;;;;;;;4985281;28;20073;-89
2021/03/06 22:44:43;;;;;;;13.90;8.40;;;;;;;;;;4986986;28;20015;-88
2021/03/06 22:47:29;;;;;;;19.05;8.52;;;;;;;;;;4986604;28;20508;-89
2021/03/06 22:50:16;;;;;;;15.07;8.10;;;;;;;;;;4990932;28;20054;-89
2021/03/06 22:53:14;;;;;;;;;;;;;;;;;;;;;
2021/03/06 22:59:55;;;;;;;16.98;9.05;;;;;;;;;;4990316;28;20038;-89
2021/03/06 23:02:55;;;;;;;16.83;9.20;;;;;;;;;;4952287;28;20054;-89
2021/03/06 23:09:29;;;;;;;15.73;8.13;;;;;;;;;;4931075;29;20063;-89
2021/03/06 23:12:42;;;;;;;11.82;7.20;;;;;;;;;;4966026;28;20034;-90
2021/03/06 23:19:27;;;;;;;;;;;;;;;;;;;;;
2021/03/06 23:25:58;;;;;;;;;;;;;;;;;;;;;
2021/03/06 23:28:39;;;;;;;14.88;8.43;;;;;;;;;;4966615;28;20268;-91
2021/03/06 23:31:27;;;;;;;13.40;7.93;;;;;;;;;;4958739;28;20097;-90
2021/03/06 23:34:26;;;;;;;11.05;7.32;;;;;;;;;;5000675;28;20121;-91
2021/03/06 23:52:02;;;;;;;;;;;;;;;;;;;;;
2021/03/06 23:58:39;;;;;;;;;;;;;;;;;;;;;
